Time;durP1;ratioP1;P1;durP2;ratioP2;P2;SDS_P1;SDS_P2;PMS_P1;PMS_P2;Temp;Humidity;BMP_temperature;BMP_pressure;BME280_temperature;BME280_humidity;BME280_pressure;Samples;Min_cycle;Max_cycle;Signal;HPM_P1;HPM_P2
2019/07/02 00:00:54;;;;;;;3.00;2.39;;;;;;;24.02;57.11;100835.24;;;;-52
2019/07/02 00:03:54;;;;;;;2.57;2.33;;;;;;;24.03;57.17;100833.76;;;;-52
2019/07/02 00:06:54;;;;;;;2.79;2.52;;;;;;;24.02;57.15;100831.44;;;;-52
2019/07/02 00:09:54;;;;;;;2.55;2.35;;;;;;;24.02;57.12;100821.07;;;;-52
2019/07/02 00:12:54;;;;;;;2.48;2.28;;;;;;;24.02;57.14;100826.30;;;;-52
2019/07/02 00:15:54;;;;;;;2.52;2.32;;;;;;;24.01;57.13;100833.70;;;;-52
2019/07/02 00:18:54;;;;;;;2.43;2.23;;;;;;;24.02;57.16;100842.23;;;;-51
2019/07/02 00:21:54;;;;;;;2.55;2.21;;;;;;;24.01;57.18;100845.34;;;;-52
2019/07/02 00:24:54;;;;;;;2.52;2.32;;;;;;;24.01;57.16;100857.05;;;;-52
2019/07/02 00:27:54;;;;;;;3.05;2.36;;;;;;;24.01;57.20;100859.91;;;;-52
2019/07/02 00:30:54;;;;;;;2.53;2.33;;;;;;;24.00;57.18;100857.35;;;;-52
2019/07/02 00:33:54;;;;;;;2.49;2.21;;;;;;;24.00;57.16;100857.28;;;;-52
2019/07/02 00:36:54;;;;;;;2.59;2.39;;;;;;;24.00;57.20;100860.05;;;;-52
2019/07/02 00:39:54;;;;;;;2.45;2.25;;;;;;;24.00;57.15;100865.72;;;;-53
2019/07/02 00:42:54;;;;;;;2.51;2.31;;;;;;;24.00;57.16;100869.16;;;;-53
2019/07/02 00:45:54;;;;;;;2.48;2.19;;;;;;;24.00;57.19;100872.70;;;;-52
2019/07/02 00:48:54;;;;;;;2.53;2.20;;;;;;;23.99;57.16;100876.83;;;;-52
2019/07/02 00:51:54;;;;;;;3.43;2.37;;;;;;;23.99;57.20;100878.17;;;;-52
2019/07/02 00:54:54;;;;;;;2.49;2.29;;;;;;;23.98;57.20;100877.47;;;;-52
2019/07/02 00:57:53;;;;;;;2.39;2.19;;;;;;;23.98;57.14;100878.04;;;;-53
2019/07/02 01:00:53;;;;;;;2.60;2.40;;;;;;;23.98;57.18;100876.35;;;;-52
2019/07/02 01:03:54;;;;;;;2.40;2.20;;;;;;;23.98;57.17;100880.73;;;;-53
2019/07/02 01:06:54;;;;;;;2.41;2.21;;;;;;;23.98;57.18;100880.73;;;;-52
2019/07/02 01:09:53;;;;;;;2.31;2.11;;;;;;;23.97;57.18;100874.91;;;;-52
2019/07/02 01:12:54;;;;;;;2.47;2.25;;;;;;;23.97;57.16;100872.30;;;;-52
2019/07/02 01:15:53;;;;;;;2.52;2.27;;;;;;;23.97;57.14;100878.95;;;;-52
2019/07/02 01:18:53;;;;;;;2.41;2.21;;;;;;;23.97;57.15;100873.38;;;;-53
2019/07/02 01:21:53;;;;;;;2.47;2.27;;;;;;;23.97;57.14;100882.56;;;;-52
2019/07/02 01:24:54;;;;;;;2.54;2.34;;;;;;;23.96;57.16;100882.80;;;;-49
2019/07/02 01:27:54;;;;;;;2.40;2.20;;;;;;;23.96;57.13;100891.17;;;;-50
2019/07/02 01:30:53;;;;;;;2.52;2.32;;;;;;;23.96;57.16;100882.13;;;;-49
2019/07/02 01:33:54;;;;;;;2.30;2.10;;;;;;;23.96;57.11;100881.78;;;;-49
2019/07/02 01:36:53;;;;;;;2.46;2.26;;;;;;;23.95;57.11;100885.47;;;;-49
2019/07/02 01:39:54;;;;;;;2.37;2.17;;;;;;;23.95;57.13;100897.11;;;;-49
2019/07/02 01:42:54;;;;;;;2.47;2.27;;;;;;;23.94;57.13;100908.31;;;;-48
2019/07/02 01:45:54;;;;;;;2.49;2.29;;;;;;;23.94;57.14;100911.08;;;;-50
2019/07/02 01:48:54;;;;;;;2.55;2.35;;;;;;;23.95;57.14;100915.39;;;;-49
2019/07/02 01:51:53;;;;;;;2.21;2.11;;;;;;;23.95;57.10;100918.13;;;;-49
2019/07/02 01:54:53;;;;;;;2.38;2.18;;;;;;;23.95;57.10;100915.77;;;;-49
2019/07/02 01:57:53;;;;;;;2.49;2.19;;;;;;;23.94;57.13;100917.31;;;;-49
2019/07/02 02:00:53;;;;;;;2.40;2.20;;;;;;;23.94;57.10;100919.58;;;;-49
2019/07/02 02:03:53;;;;;;;2.20;2.07;;;;;;;23.94;57.10;100930.05;;;;-49
2019/07/02 02:06:54;;;;;;;2.71;2.19;;;;;;;23.94;57.08;100936.11;;;;-49
2019/07/02 02:09:54;;;;;;;2.39;2.19;;;;;;;23.94;57.10;100940.09;;;;-50
2019/07/02 02:12:53;;;;;;;2.50;2.30;;;;;;;23.93;57.06;100945.22;;;;-49
2019/07/02 02:15:53;;;;;;;2.49;2.29;;;;;;;23.93;57.06;100934.73;;;;-49
2019/07/02 02:18:54;;;;;;;2.33;2.17;;;;;;;23.92;57.07;100945.59;;;;-49
2019/07/02 02:21:53;;;;;;;2.40;2.20;;;;;;;23.92;57.05;100943.91;;;;-49
2019/07/02 02:24:54;;;;;;;2.54;2.33;;;;;;;23.92;57.04;100953.29;;;;-49
2019/07/02 02:27:53;;;;;;;2.56;2.36;;;;;;;23.93;57.01;100962.77;;;;-52
2019/07/02 02:30:54;;;;;;;2.45;2.25;;;;;;;23.92;57.06;100960.95;;;;-52
2019/07/02 02:33:53;;;;;;;2.59;2.38;;;;;;;23.92;57.05;100967.46;;;;-52
2019/07/02 02:36:53;;;;;;;2.30;2.17;;;;;;;23.92;57.05;100967.97;;;;-52
2019/07/02 02:39:54;;;;;;;2.27;2.07;;;;;;;23.92;57.00;100966.62;;;;-52
2019/07/02 02:42:53;;;;;;;2.39;2.15;;;;;;;23.91;57.00;100962.27;;;;-52
2019/07/02 02:45:53;;;;;;;2.07;1.93;;;;;;;23.92;56.98;100968.44;;;;-65
2019/07/02 02:48:54;;;;;;;2.45;2.25;;;;;;;23.91;57.04;100973.06;;;;-65
2019/07/02 02:51:54;;;;;;;2.20;2.09;;;;;;;23.91;57.01;100975.49;;;;-65
2019/07/02 02:54:53;;;;;;;2.37;2.17;;;;;;;23.90;57.00;100973.80;;;;-66
2019/07/02 02:57:53;;;;;;;2.43;2.17;;;;;;;23.90;56.99;100964.52;;;;-65
2019/07/02 03:00:53;;;;;;;2.49;2.28;;;;;;;23.90;56.98;100969.66;;;;-65
2019/07/02 03:03:54;;;;;;;2.49;2.29;;;;;;;23.90;56.96;100971.51;;;;-65
2019/07/02 03:06:54;;;;;;;2.30;2.10;;;;;;;23.90;56.97;100971.68;;;;-64
2019/07/02 03:09:54;;;;;;;2.51;2.19;;;;;;;23.89;56.97;100972.86;;;;-64
2019/07/02 03:12:53;;;;;;;2.21;2.05;;;;;;;23.89;56.95;100975.36;;;;-64
2019/07/02 03:15:53;;;;;;;2.33;2.13;;;;;;;23.89;57.01;100975.22;;;;-65
2019/07/02 03:18:53;;;;;;;2.17;2.07;;;;;;;23.89;56.98;100976.03;;;;-64
2019/07/02 03:21:53;;;;;;;2.37;2.17;;;;;;;23.89;56.99;100980.66;;;;-65
2019/07/02 03:24:54;;;;;;;2.47;2.20;;;;;;;23.88;56.99;100976.88;;;;-64
2019/07/02 03:27:54;;;;;;;2.21;2.06;;;;;;;23.88;56.94;100973.13;;;;-64
2019/07/02 03:30:53;;;;;;;2.27;2.07;;;;;;;23.87;56.94;100970.83;;;;-64
2019/07/02 03:33:54;;;;;;;2.40;2.20;;;;;;;23.88;56.93;100966.88;;;;-66
2019/07/02 03:36:53;;;;;;;2.65;2.23;;;;;;;23.88;56.89;100976.73;;;;-65
2019/07/02 03:39:53;;;;;;;2.85;2.35;;;;;;;23.88;56.91;100982.91;;;;-64
2019/07/02 03:42:54;;;;;;;2.33;2.13;;;;;;;23.87;56.96;100984.16;;;;-64
2019/07/02 03:45:54;;;;;;;2.30;2.10;;;;;;;23.87;56.91;100986.75;;;;-65
2019/07/02 03:48:54;;;;;;;2.19;2.09;;;;;;;23.86;56.94;100992.05;;;;-64
2019/07/02 03:51:54;;;;;;;2.29;2.09;;;;;;;23.86;56.94;100990.20;;;;-65
2019/07/02 03:54:53;;;;;;;2.09;1.99;;;;;;;23.87;56.89;100996.10;;;;-64
2019/07/02 03:57:54;;;;;;;2.07;1.97;;;;;;;23.86;56.92;101000.72;;;;-65
2019/07/02 04:00:53;;;;;;;2.27;2.07;;;;;;;23.86;56.91;101006.56;;;;-64
2019/07/02 04:03:54;;;;;;;2.38;2.02;;;;;;;23.86;56.93;101008.25;;;;-66
2019/07/02 04:06:54;;;;;;;2.36;2.22;;;;;;;23.86;56.92;101011.25;;;;-66
2019/07/02 04:09:53;;;;;;;2.30;2.10;;;;;;;23.86;56.92;101009.33;;;;-65
2019/07/02 04:12:54;;;;;;;2.63;2.17;;;;;;;23.86;56.92;101009.49;;;;-66
2019/07/02 04:15:54;;;;;;;2.39;2.19;;;;;;;23.85;56.93;101017.39;;;;-65
2019/07/02 04:18:53;;;;;;;2.29;2.09;;;;;;;23.85;56.93;101021.50;;;;-64
2019/07/02 04:21:54;;;;;;;2.31;2.10;;;;;;;23.85;56.90;101025.08;;;;-64
2019/07/02 04:24:53;;;;;;;2.13;2.00;;;;;;;23.85;56.90;101021.60;;;;-66
2019/07/02 04:27:53;;;;;;;2.30;2.10;;;;;;;23.86;56.88;101025.35;;;;-65
2019/07/02 04:30:54;;;;;;;2.91;2.19;;;;;;;23.84;56.94;101022.17;;;;-64
2019/07/02 04:33:54;;;;;;;2.31;2.11;;;;;;;23.85;56.88;101027.68;;;;-65
2019/07/02 04:36:53;;;;;;;2.40;2.20;;;;;;;23.84;56.90;101031.69;;;;-66
2019/07/02 04:39:53;;;;;;;2.23;2.03;;;;;;;23.84;56.89;101028.83;;;;-66
2019/07/02 04:42:54;;;;;;;2.30;2.10;;;;;;;23.84;56.92;101029.16;;;;-66
2019/07/02 04:45:53;;;;;;;2.35;2.15;;;;;;;23.84;56.88;101028.55;;;;-64
2019/07/02 04:48:53;;;;;;;2.14;2.04;;;;;;;23.83;56.92;101021.80;;;;-65
2019/07/02 04:51:54;;;;;;;2.23;2.03;;;;;;;23.83;56.90;101020.08;;;;-64
2019/07/02 04:54:53;;;;;;;2.21;2.03;;;;;;;23.84;56.91;101020.55;;;;-65
2019/07/02 04:57:53;;;;;;;2.11;2.00;;;;;;;23.83;56.90;101025.24;;;;-65
2019/07/02 05:00:53;;;;;;;2.19;1.99;;;;;;;23.83;56.89;101022.89;;;;-65
2019/07/02 05:03:54;;;;;;;8.03;3.31;;;;;;;23.68;47.36;101024.70;;;;-63
2019/07/02 05:06:53;;;;;;;7.17;3.62;;;;;;;23.22;45.64;101030.77;;;;-63
2019/07/02 05:09:53;;;;;;;5.19;3.44;;;;;;;22.89;45.43;101034.11;;;;-63
2019/07/02 05:12:54;;;;;;;6.36;3.51;;;;;;;22.78;45.43;101038.58;;;;-64
2019/07/02 05:15:54;;;;;;;6.35;3.58;;;;;;;22.63;45.70;101038.04;;;;-63
2019/07/02 05:18:54;;;;;;;6.50;3.81;;;;;;;22.53;46.09;101047.59;;;;-64
2019/07/02 05:21:53;;;;;;;7.32;3.54;;;;;;;22.43;46.57;101047.86;;;;-64
2019/07/02 05:24:53;;;;;;;8.13;3.46;;;;;;;22.42;46.34;101051.84;;;;-63
2019/07/02 05:27:53;;;;;;;6.23;3.39;;;;;;;22.32;46.59;101051.56;;;;-64
2019/07/02 05:30:54;;;;;;;5.24;3.39;;;;;;;22.21;47.01;101054.39;;;;-63
2019/07/02 05:33:54;;;;;;;6.49;3.53;;;;;;;22.26;46.89;101055.89;;;;-64
2019/07/02 05:36:54;;;;;;;5.29;3.70;;;;;;;22.18;46.79;101051.44;;;;-63
2019/07/02 05:39:53;;;;;;;7.75;3.72;;;;;;;22.19;46.51;101050.54;;;;-52
2019/07/02 05:42:53;;;;;;;6.80;3.48;;;;;;;22.17;46.53;101049.34;;;;-52
2019/07/02 05:45:54;;;;;;;9.43;3.75;;;;;;;22.14;46.72;101053.69;;;;-51
2019/07/02 05:48:54;;;;;;;7.96;3.63;;;;;;;22.12;46.68;101056.53;;;;-52
2019/07/02 05:51:53;;;;;;;8.40;3.53;;;;;;;22.12;46.48;101056.30;;;;-52
2019/07/02 05:54:53;;;;;;;8.51;3.82;;;;;;;22.11;47.04;101058.10;;;;-52
2019/07/02 05:57:54;;;;;;;7.31;3.71;;;;;;;22.06;46.72;101061.75;;;;-51
2019/07/02 06:00:54;;;;;;;8.25;3.80;;;;;;;22.09;46.55;101060.53;;;;-51
2019/07/02 06:03:53;;;;;;;7.40;4.02;;;;;;;22.02;46.63;101062.48;;;;-52
2019/07/02 06:06:53;;;;;;;6.07;3.54;;;;;;;22.06;47.07;101062.77;;;;-52
2019/07/02 06:09:53;;;;;;;7.79;3.92;;;;;;;22.05;46.80;101062.82;;;;-52
2019/07/02 06:12:53;;;;;;;10.31;3.96;;;;;;;22.01;46.62;101066.92;;;;-51
2019/07/02 06:15:53;;;;;;;8.35;3.92;;;;;;;22.03;46.27;101068.28;;;;-51
2019/07/02 06:18:53;;;;;;;5.40;3.45;;;;;;;22.03;46.54;101069.62;;;;-51
2019/07/02 06:21:54;;;;;;;6.54;3.23;;;;;;;21.99;46.28;101068.52;;;;-52
2019/07/02 06:24:53;;;;;;;7.17;3.48;;;;;;;22.04;46.52;101069.91;;;;-52
2019/07/02 06:27:53;;;;;;;4.75;3.38;;;;;;;22.03;46.76;101068.08;;;;-63
2019/07/02 06:30:53;;;;;;;7.13;3.18;;;;;;;22.02;46.52;101065.95;;;;-64
2019/07/02 06:33:53;;;;;;;6.28;3.19;;;;;;;22.01;46.09;101064.33;;;;-64
2019/07/02 06:36:54;;;;;;;5.56;3.30;;;;;;;22.08;45.64;101064.87;;;;-64
2019/07/02 06:39:53;;;;;;;5.95;3.47;;;;;;;22.05;46.27;101059.70;;;;-64
2019/07/02 06:42:54;;;;;;;5.67;3.23;;;;;;;22.09;46.36;101055.16;;;;-60
2019/07/02 06:45:53;;;;;;;5.53;3.44;;;;;;;22.07;45.97;101052.55;;;;-59
2019/07/02 06:48:53;;;;;;;5.67;3.25;;;;;;;22.08;45.56;101058.41;;;;-60
2019/07/02 06:51:53;;;;;;;8.65;3.35;;;;;;;22.13;45.44;101059.70;;;;-59
2019/07/02 06:54:54;;;;;;;6.03;3.26;;;;;;;22.17;45.66;101062.41;;;;-62
2019/07/02 06:57:54;;;;;;;5.35;3.13;;;;;;;22.18;45.50;101060.93;;;;-61
2019/07/02 07:00:54;;;;;;;6.57;3.32;;;;;;;22.23;45.63;101068.67;;;;-59
2019/07/02 07:03:53;;;;;;;7.08;3.13;;;;;;;22.21;45.00;101070.45;;;;-60
2019/07/02 07:06:54;;;;;;;7.93;3.33;;;;;;;22.22;44.67;101064.30;;;;-50
2019/07/02 07:09:54;;;;;;;5.04;3.19;;;;;;;22.21;45.03;101064.86;;;;-49
2019/07/02 07:12:54;;;;;;;6.45;3.23;;;;;;;22.26;44.78;101064.13;;;;-49
2019/07/02 07:15:53;;;;;;;9.41;3.40;;;;;;;22.26;44.31;101059.66;;;;-47
2019/07/02 07:18:53;;;;;;;5.24;3.26;;;;;;;22.24;44.48;101063.71;;;;-47
2019/07/02 07:21:53;;;;;;;5.72;3.22;;;;;;;22.27;44.81;101065.82;;;;-47
2019/07/02 07:24:53;;;;;;;4.54;3.27;;;;;;;22.30;44.57;101065.05;;;;-59
2019/07/02 07:27:54;;;;;;;7.48;3.19;;;;;;;22.27;44.72;101054.04;;;;-58
2019/07/02 07:30:53;;;;;;;4.01;2.83;;;;;;;22.29;45.00;101053.83;;;;-59
2019/07/02 07:33:53;;;;;;;6.28;3.24;;;;;;;22.30;44.82;101053.43;;;;-59
2019/07/02 07:36:53;;;;;;;4.67;3.06;;;;;;;22.30;44.77;101053.94;;;;-59
2019/07/02 07:39:53;;;;;;;5.15;3.31;;;;;;;22.28;44.40;101048.87;;;;-58
2019/07/02 07:42:53;;;;;;;4.63;3.05;;;;;;;22.31;44.55;101049.34;;;;-59
2019/07/02 07:45:53;;;;;;;5.76;3.33;;;;;;;22.35;44.25;101051.55;;;;-58
2019/07/02 07:48:53;;;;;;;18.61;3.45;;;;;;;22.39;44.46;101042.03;;;;-49
2019/07/02 07:51:53;;;;;;;6.21;3.12;;;;;;;22.40;44.17;101043.86;;;;-47
2019/07/02 07:54:53;;;;;;;6.30;3.41;;;;;;;22.42;44.61;101043.27;;;;-48
2019/07/02 07:57:53;;;;;;;6.63;3.37;;;;;;;22.43;44.29;101041.45;;;;-48
2019/07/02 08:00:53;;;;;;;4.53;3.21;;;;;;;22.45;44.39;101038.84;;;;-48
2019/07/02 08:03:53;;;;;;;6.73;3.09;;;;;;;22.50;44.43;101038.95;;;;-54
2019/07/02 08:06:53;;;;;;;10.29;3.34;;;;;;;22.51;44.92;101032.64;;;;-51
2019/07/02 08:09:53;;;;;;;4.60;3.12;;;;;;;22.53;45.06;101028.00;;;;-58
2019/07/02 08:12:53;;;;;;;6.40;3.45;;;;;;;22.55;44.89;101029.91;;;;-52
2019/07/02 08:15:53;;;;;;;4.30;3.18;;;;;;;22.52;44.11;101034.66;;;;-51
2019/07/02 08:18:54;;;;;;;4.65;3.11;;;;;;;22.53;43.98;101031.54;;;;-48
2019/07/02 08:21:53;;;;;;;6.07;3.51;;;;;;;22.52;43.82;101028.94;;;;-56
2019/07/02 08:24:54;;;;;;;4.33;3.20;;;;;;;22.54;44.15;101027.61;;;;-57
2019/07/02 08:27:53;;;;;;;4.73;3.15;;;;;;;22.56;44.02;101027.42;;;;-46
2019/07/02 08:30:54;;;;;;;3.63;3.09;;;;;;;22.57;44.21;101034.13;;;;-46
2019/07/02 08:33:53;;;;;;;5.14;3.04;;;;;;;22.59;43.57;101030.91;;;;-56
2019/07/02 08:36:53;;;;;;;12.79;3.58;;;;;;;22.64;44.46;101033.37;;;;-47
2019/07/02 08:39:53;;;;;;;10.21;3.21;;;;;;;22.68;45.03;101030.60;;;;-47
2019/07/02 08:42:53;;;;;;;11.20;2.81;;;;;;;22.72;45.54;101024.94;;;;-48
2019/07/02 08:45:53;;;;;;;10.25;3.44;;;;;;;22.75;45.91;101021.45;;;;-49
2019/07/02 08:48:54;;;;;;;8.49;2.74;;;;;;;22.78;46.27;101017.33;;;;-50
2019/07/02 08:51:54;;;;;;;10.31;3.12;;;;;;;22.80;46.44;101015.59;;;;-49
2019/07/02 08:54:53;;;;;;;6.75;3.04;;;;;;;22.85;46.57;101016.19;;;;-47
2019/07/02 08:57:53;;;;;;;8.21;2.83;;;;;;;22.85;46.80;101015.25;;;;-48
2019/07/02 09:00:53;;;;;;;9.01;3.15;;;;;;;22.85;46.66;101016.19;;;;-48
2019/07/02 09:03:53;;;;;;;5.90;2.99;;;;;;;22.86;46.63;101019.33;;;;-48
2019/07/02 09:06:54;;;;;;;5.53;2.88;;;;;;;22.87;46.69;101026.21;;;;-48
2019/07/02 09:09:53;;;;;;;6.84;3.08;;;;;;;22.88;46.25;101021.53;;;;-49
2019/07/02 09:12:54;;;;;;;5.99;2.90;;;;;;;22.88;46.12;101021.03;;;;-49
2019/07/02 09:15:53;;;;;;;5.97;3.24;;;;;;;22.89;45.65;101023.83;;;;-48
2019/07/02 09:18:53;;;;;;;6.91;2.98;;;;;;;22.89;46.39;101020.56;;;;-48
2019/07/02 09:21:54;;;;;;;6.55;3.08;;;;;;;22.90;46.54;101018.08;;;;-48
2019/07/02 09:24:53;;;;;;;4.03;2.73;;;;;;;22.91;46.62;101021.89;;;;-49
2019/07/02 09:27:53;;;;;;;5.75;2.91;;;;;;;22.92;46.52;101012.16;;;;-48
2019/07/02 09:30:53;;;;;;;4.42;2.85;;;;;;;22.92;46.90;101014.78;;;;-48
2019/07/02 09:33:53;;;;;;;4.81;2.77;;;;;;;22.94;47.13;101019.31;;;;-48
2019/07/02 09:36:53;;;;;;;4.10;2.89;;;;;;;22.95;47.11;101016.89;;;;-48
2019/07/02 09:39:53;;;;;;;4.60;2.79;;;;;;;22.97;47.36;101015.63;;;;-49
2019/07/02 09:42:53;;;;;;;14.18;3.27;;;;;;;22.98;47.08;101018.80;;;;-48
2019/07/02 09:45:53;;;;;;;5.97;3.11;;;;;;;23.01;47.53;101017.91;;;;-49
2019/07/02 09:48:53;;;;;;;6.87;3.04;;;;;;;23.04;47.73;101018.31;;;;-45
2019/07/02 09:51:54;;;;;;;8.07;3.09;;;;;;;23.05;47.96;101012.12;;;;-48
2019/07/02 09:54:53;;;;;;;6.38;2.92;;;;;;;23.06;48.06;101011.42;;;;-47
2019/07/02 09:57:54;;;;;;;9.33;3.20;;;;;;;23.07;48.16;101013.72;;;;-47
2019/07/02 10:00:53;;;;;;;14.30;3.13;;;;;;;23.10;48.33;101012.18;;;;-50
2019/07/02 10:03:54;;;;;;;10.58;2.93;;;;;;;23.12;48.50;101014.45;;;;-48
2019/07/02 10:06:53;;;;;;;5.65;3.13;;;;;;;23.14;48.61;101007.89;;;;-51
2019/07/02 10:09:54;;;;;;;13.45;3.35;;;;;;;23.19;48.77;101011.34;;;;-45
2019/07/02 10:12:53;;;;;;;11.29;3.35;;;;;;;23.21;48.86;101004.79;;;;-50
2019/07/02 10:15:53;;;;;;;15.93;3.05;;;;;;;23.23;48.88;101006.95;;;;-48
2019/07/02 10:18:55;;;;;;;8.07;2.98;;;;;;;23.24;49.01;101004.56;;;;-49
2019/07/02 10:21:53;;;;;;;12.94;2.99;;;;;;;23.26;49.07;100999.48;;;;-51
2019/07/02 10:24:53;;;;;;;7.33;2.99;;;;;;;23.26;49.07;101002.85;;;;-49
2019/07/02 10:27:53;;;;;;;9.27;2.77;;;;;;;23.27;49.15;100995.06;;;;-51
2019/07/02 10:30:53;;;;;;;5.59;2.70;;;;;;;23.28;49.20;100994.40;;;;-54
2019/07/02 10:33:54;;;;;;;9.32;2.80;;;;;;;23.30;49.37;100988.91;;;;-53
2019/07/02 10:36:54;;;;;;;7.37;2.96;;;;;;;23.31;49.20;100976.24;;;;-52
2019/07/02 10:39:53;;;;;;;8.96;3.15;;;;;;;23.33;49.23;100988.69;;;;-52
2019/07/02 10:42:53;;;;;;;4.85;2.75;;;;;;;23.34;49.30;100989.67;;;;-51
2019/07/02 10:45:54;;;;;;;6.57;2.91;;;;;;;23.36;49.34;100997.16;;;;-51
2019/07/02 10:48:54;;;;;;;13.60;2.81;;;;;;;23.37;49.40;100995.17;;;;-51
2019/07/02 10:51:53;;;;;;;7.46;2.79;;;;;;;23.39;49.45;100984.45;;;;-52
2019/07/02 10:54:54;;;;;;;7.47;2.66;;;;;;;23.39;49.46;100979.50;;;;-52
2019/07/02 10:57:53;;;;;;;7.11;2.87;;;;;;;23.40;49.52;100982.98;;;;-52
2019/07/02 11:00:53;;;;;;;6.91;2.65;;;;;;;23.41;49.67;100991.55;;;;-53
2019/07/02 11:03:53;;;;;;;6.21;2.76;;;;;;;23.42;49.69;100986.09;;;;-53
2019/07/02 11:06:53;;;;;;;7.81;2.87;;;;;;;23.43;49.75;100985.34;;;;-51
2019/07/02 11:09:53;;;;;;;7.95;2.78;;;;;;;23.43;49.85;100979.55;;;;-51
2019/07/02 11:12:53;;;;;;;4.89;2.60;;;;;;;23.45;49.90;100981.47;;;;-54
2019/07/02 11:15:53;;;;;;;4.83;2.65;;;;;;;23.46;49.79;100988.66;;;;-53
2019/07/02 11:18:54;;;;;;;3.25;2.52;;;;;;;23.47;49.93;100986.95;;;;-51
2019/07/02 11:21:53;;;;;;;7.45;2.79;;;;;;;23.48;49.95;100977.44;;;;-52
2019/07/02 11:24:54;;;;;;;4.69;2.92;;;;;;;23.49;49.96;100982.97;;;;-53
2019/07/02 11:27:53;;;;;;;6.81;2.66;;;;;;;23.49;49.84;100980.78;;;;-53
2019/07/02 11:30:53;;;;;;;4.77;2.81;;;;;;;23.48;49.88;100973.73;;;;-53
2019/07/02 11:33:53;;;;;;;7.02;2.60;;;;;;;23.48;49.97;100972.89;;;;-53
2019/07/02 11:36:53;;;;;;;4.44;2.56;;;;;;;23.48;49.94;100977.70;;;;-54
2019/07/02 11:39:53;;;;;;;4.99;2.56;;;;;;;23.47;49.97;100973.45;;;;-53
2019/07/02 11:42:53;;;;;;;16.61;2.99;;;;;;;23.50;50.22;100964.36;;;;-54
2019/07/02 11:45:53;;;;;;;4.43;2.57;;;;;;;23.49;50.16;100965.44;;;;-54
2019/07/02 11:48:53;;;;;;;7.02;2.65;;;;;;;23.50;50.12;100968.23;;;;-54
2019/07/02 11:51:53;;;;;;;4.23;2.31;;;;;;;23.50;50.13;100962.78;;;;-55
2019/07/02 11:54:53;;;;;;;4.19;2.53;;;;;;;23.51;50.15;100956.06;;;;-54
2019/07/02 11:57:53;;;;;;;6.37;2.46;;;;;;;23.52;50.22;100960.45;;;;-53
2019/07/02 12:00:54;;;;;;;4.23;2.43;;;;;;;23.53;50.25;100959.81;;;;-55
2019/07/02 12:03:53;;;;;;;4.09;2.65;;;;;;;23.53;50.28;100961.70;;;;-54
2019/07/02 12:06:53;;;;;;;3.87;2.37;;;;;;;23.55;50.26;100959.21;;;;-55
2019/07/02 12:09:53;;;;;;;6.33;2.55;;;;;;;23.54;50.35;100944.88;;;;-54
2019/07/02 12:12:53;;;;;;;4.20;2.37;;;;;;;23.56;50.40;100947.95;;;;-51
2019/07/02 12:15:54;;;;;;;5.05;2.55;;;;;;;23.57;50.46;100948.49;;;;-51
2019/07/02 12:18:53;;;;;;;4.11;2.51;;;;;;;23.58;50.42;100947.34;;;;-52
2019/07/02 12:21:53;;;;;;;3.98;2.48;;;;;;;23.58;50.48;100950.42;;;;-54
2019/07/02 12:24:54;;;;;;;5.55;2.49;;;;;;;23.59;50.49;100949.44;;;;-52
2019/07/02 12:27:53;;;;;;;5.45;2.49;;;;;;;23.60;50.49;100948.59;;;;-53
2019/07/02 12:30:53;;;;;;;3.41;2.45;;;;;;;23.62;50.47;100934.58;;;;-58
2019/07/02 12:33:53;;;;;;;3.79;2.43;;;;;;;23.63;50.41;100940.44;;;;-56
2019/07/02 12:36:53;;;;;;;3.87;2.43;;;;;;;23.64;50.53;100940.34;;;;-51
2019/07/02 12:39:53;;;;;;;6.51;2.48;;;;;;;23.64;50.66;100937.44;;;;-52
2019/07/02 12:42:53;;;;;;;4.48;2.87;;;;;;;23.64;50.58;100936.13;;;;-52
2019/07/02 12:45:53;;;;;;;4.54;2.41;;;;;;;23.64;50.64;100938.22;;;;-52
2019/07/02 12:48:53;;;;;;;4.43;2.29;;;;;;;23.64;50.61;100940.24;;;;-52
2019/07/02 12:51:54;;;;;;;4.63;2.45;;;;;;;23.65;50.67;100939.00;;;;-52
2019/07/02 12:54:53;;;;;;;5.76;2.31;;;;;;;23.66;50.75;100938.42;;;;-52
2019/07/02 12:57:53;;;;;;;5.05;2.39;;;;;;;23.67;50.73;100940.98;;;;-51
2019/07/02 13:00:54;;;;;;;6.90;2.29;;;;;;;23.67;50.65;100936.70;;;;-56
2019/07/02 13:03:53;;;;;;;6.27;2.28;;;;;;;23.66;50.60;100935.25;;;;-55
2019/07/02 13:06:53;;;;;;;5.32;2.39;;;;;;;23.67;50.70;100936.43;;;;-56
2019/07/02 13:09:53;;;;;;;4.55;2.33;;;;;;;23.66;50.78;100934.91;;;;-56
2019/07/02 13:12:53;;;;;;;4.25;2.40;;;;;;;23.66;50.72;100932.79;;;;-56
2019/07/02 13:15:53;;;;;;;7.76;2.61;;;;;;;23.66;50.72;100939.70;;;;-52
2019/07/02 13:18:53;;;;;;;3.85;2.47;;;;;;;23.66;50.53;100934.91;;;;-54
2019/07/02 13:21:53;;;;;;;4.49;2.29;;;;;;;23.67;50.72;100929.35;;;;-53
2019/07/02 13:24:53;;;;;;;3.35;2.40;;;;;;;23.68;50.68;100927.12;;;;-52
2019/07/02 13:27:53;;;;;;;4.81;2.63;;;;;;;23.70;50.75;100922.88;;;;-52
2019/07/02 13:30:54;;;;;;;3.13;2.32;;;;;;;23.70;50.74;100917.41;;;;-52
2019/07/02 13:33:53;;;;;;;7.17;2.35;;;;;;;23.71;50.73;100909.62;;;;-51
2019/07/02 13:36:53;;;;;;;4.53;2.51;;;;;;;23.73;50.80;100913.70;;;;-53
2019/07/02 13:39:53;;;;;;;3.67;2.20;;;;;;;23.73;50.87;100911.05;;;;-53
2019/07/02 13:42:53;;;;;;;4.33;2.23;;;;;;;23.74;50.92;100915.09;;;;-54
2019/07/02 13:45:53;;;;;;;5.10;2.08;;;;;;;23.74;50.93;100906.66;;;;-55
2019/07/02 13:48:53;;;;;;;3.53;2.24;;;;;;;23.74;50.96;100903.12;;;;-52
2019/07/02 13:51:53;;;;;;;7.27;2.27;;;;;;;23.75;51.06;100903.08;;;;-55
2019/07/02 13:54:53;;;;;;;4.95;2.20;;;;;;;23.76;51.08;100896.03;;;;-54
2019/07/02 13:57:54;;;;;;;5.02;2.19;;;;;;;23.75;51.17;100898.86;;;;-55
2019/07/02 14:00:53;;;;;;;4.21;2.35;;;;;;;23.77;51.19;100891.75;;;;-57
2019/07/02 14:03:53;;;;;;;3.13;2.23;;;;;;;23.78;51.13;100891.75;;;;-53
2019/07/02 14:06:53;;;;;;;4.91;2.13;;;;;;;23.78;51.13;100890.23;;;;-53
2019/07/02 14:09:53;;;;;;;4.48;2.20;;;;;;;23.78;51.14;100883.14;;;;-53
2019/07/02 14:12:53;;;;;;;4.37;2.14;;;;;;;23.79;51.14;100877.11;;;;-52
2019/07/02 14:15:53;;;;;;;3.90;2.26;;;;;;;23.80;51.16;100876.97;;;;-54
2019/07/02 14:18:53;;;;;;;4.67;2.25;;;;;;;23.81;51.18;100875.22;;;;-55
2019/07/02 14:21:53;;;;;;;3.47;2.17;;;;;;;23.81;51.18;100874.98;;;;-51
2019/07/02 14:24:53;;;;;;;4.77;2.22;;;;;;;23.83;51.17;100868.88;;;;-53
2019/07/02 14:27:53;;;;;;;4.63;2.30;;;;;;;23.82;51.23;100872.05;;;;-53
2019/07/02 14:30:53;;;;;;;5.71;2.04;;;;;;;23.83;51.30;100865.50;;;;-53
2019/07/02 14:33:53;;;;;;;5.83;2.25;;;;;;;23.82;51.25;100860.75;;;;-54
2019/07/02 14:36:53;;;;;;;3.55;2.12;;;;;;;23.82;51.38;100861.52;;;;-56
2019/07/02 14:39:53;;;;;;;3.64;2.20;;;;;;;23.83;51.40;100862.70;;;;-53
2019/07/02 14:42:54;;;;;;;4.19;2.22;;;;;;;23.84;51.39;100862.43;;;;-52
2019/07/02 14:45:53;;;;;;;3.97;2.13;;;;;;;23.85;51.38;100857.13;;;;-52
2019/07/02 14:48:53;;;;;;;4.24;2.19;;;;;;;23.86;51.42;100857.23;;;;-54
2019/07/02 14:51:53;;;;;;;4.16;2.18;;;;;;;23.86;51.33;100855.31;;;;-53
2019/07/02 14:54:53;;;;;;;2.80;1.99;;;;;;;23.87;51.43;100849.34;;;;-55
2019/07/02 14:57:53;;;;;;;3.59;2.13;;;;;;;23.87;51.46;100853.66;;;;-55
2019/07/02 15:00:53;;;;;;;3.75;2.23;;;;;;;23.87;51.55;100847.69;;;;-58
2019/07/02 15:03:54;;;;;;;4.79;2.25;;;;;;;23.89;51.57;100847.48;;;;-52
2019/07/02 15:06:53;;;;;;;3.45;2.04;;;;;;;23.91;51.59;100848.83;;;;-52
2019/07/02 15:09:53;;;;;;;3.51;2.09;;;;;;;23.92;51.72;100843.70;;;;-53
2019/07/02 15:12:53;;;;;;;3.91;2.20;;;;;;;23.93;51.76;100845.41;;;;-57
2019/07/02 15:15:53;;;;;;;4.63;2.19;;;;;;;23.95;51.64;100842.38;;;;-52
2019/07/02 15:18:53;;;;;;;7.27;2.23;;;;;;;23.96;51.59;100837.41;;;;-54
2019/07/02 15:21:53;;;;;;;4.33;2.26;;;;;;;23.91;51.33;100837.19;;;;-54
2019/07/02 15:24:53;;;;;;;4.39;2.05;;;;;;;23.87;50.86;100833.52;;;;-54
2019/07/02 15:27:53;;;;;;;3.96;2.17;;;;;;;23.85;50.68;100824.47;;;;-54
2019/07/02 15:30:53;;;;;;;2.52;2.24;;;;;;;23.83;50.70;100826.20;;;;-54
2019/07/02 15:33:53;;;;;;;4.12;2.10;;;;;;;23.79;50.64;100824.38;;;;-54
2019/07/02 15:36:53;;;;;;;3.69;2.03;;;;;;;23.79;50.80;100819.33;;;;-54
2019/07/02 15:39:53;;;;;;;4.97;2.11;;;;;;;23.78;50.78;100823.81;;;;-54
2019/07/02 15:42:53;;;;;;;2.75;2.13;;;;;;;23.76;50.68;100823.41;;;;-53
2019/07/02 15:45:53;;;;;;;3.43;2.23;;;;;;;23.75;50.70;100815.88;;;;-53
2019/07/02 15:48:53;;;;;;;2.89;2.05;;;;;;;23.74;50.75;100809.00;;;;-53
2019/07/02 15:51:53;;;;;;;4.13;1.97;;;;;;;23.72;50.76;100811.06;;;;-54
2019/07/02 15:54:53;;;;;;;2.29;2.00;;;;;;;23.72;50.78;100805.94;;;;-54
2019/07/02 15:57:53;;;;;;;2.45;2.00;;;;;;;23.71;50.82;100808.16;;;;-54
2019/07/02 16:00:53;;;;;;;3.74;2.09;;;;;;;23.71;50.76;100805.70;;;;-54
2019/07/02 16:03:53;;;;;;;2.43;2.09;;;;;;;23.70;50.77;100803.48;;;;-53
2019/07/02 16:06:53;;;;;;;2.24;2.04;;;;;;;23.69;50.75;100793.16;;;;-53
2019/07/02 16:09:53;;;;;;;2.55;2.05;;;;;;;23.67;50.76;100794.38;;;;-53
2019/07/02 16:12:53;;;;;;;2.21;1.91;;;;;;;23.67;50.72;100804.16;;;;-53
2019/07/02 16:15:53;;;;;;;2.77;2.10;;;;;;;23.66;50.76;100809.34;;;;-54
2019/07/02 16:18:53;;;;;;;2.67;2.12;;;;;;;23.65;50.72;100803.17;;;;-54
2019/07/02 16:21:53;;;;;;;2.41;1.95;;;;;;;23.65;50.75;100798.36;;;;-54
2019/07/02 16:24:53;;;;;;;2.16;2.01;;;;;;;23.65;50.71;100797.45;;;;-54
2019/07/02 16:27:54;;;;;;;2.20;2.00;;;;;;;23.64;50.75;100801.62;;;;-54
2019/07/02 16:30:54;;;;;;;2.74;2.00;;;;;;;23.64;50.77;100798.73;;;;-54
2019/07/02 16:33:53;;;;;;;2.85;2.02;;;;;;;23.63;50.74;100802.70;;;;-54
2019/07/02 16:36:53;;;;;;;3.78;2.00;;;;;;;23.61;50.79;100800.78;;;;-54
2019/07/02 16:39:53;;;;;;;2.40;2.09;;;;;;;23.62;50.75;100796.73;;;;-53